sensor_id;sensor_type;location;lat;lon;timestamp;P1;durP1;ratioP1;P2;durP2;ratioP2
48911;SDS011;34722;52.108;5.044;2023-09-30T00:02:06;23.65;;;12.93;;
48911;SDS011;34722;52.108;5.044;2023-09-30T00:04:31;23.30;;;11.65;;
48911;SDS011;34722;52.108;5.044;2023-09-30T00:06:58;27.58;;;13.80;;
48911;SDS011;34722;52.108;5.044;2023-09-30T00:09:24;22.20;;;12.10;;
48911;SDS011;34722;52.108;5.044;2023-09-30T00:11:50;21.00;;;12.15;;
48911;SDS011;34722;52.108;5.044;2023-09-30T00:14:15;27.52;;;12.23;;
48911;SDS011;34722;52.108;5.044;2023-09-30T00:16:42;25.30;;;12.10;;
48911;SDS011;34722;52.108;5.044;2023-09-30T00:19:08;29.42;;;14.15;;
48911;SDS011;34722;52.108;5.044;2023-09-30T00:21:34;23.98;;;12.43;;
48911;SDS011;34722;52.108;5.044;2023-09-30T00:24:00;25.85;;;13.02;;
48911;SDS011;34722;52.108;5.044;2023-09-30T00:26:26;26.30;;;11.32;;
48911;SDS011;34722;52.108;5.044;2023-09-30T00:28:51;26.95;;;10.98;;
48911;SDS011;34722;52.108;5.044;2023-09-30T00:31:17;31.52;;;13.35;;
48911;SDS011;34722;52.108;5.044;2023-09-30T00:33:42;28.27;;;13.48;;
48911;SDS011;34722;52.108;5.044;2023-09-30T00:36:08;25.00;;;13.10;;
48911;SDS011;34722;52.108;5.044;2023-09-30T00:38:35;23.85;;;12.75;;
48911;SDS011;34722;52.108;5.044;2023-09-30T00:41:04;25.50;;;11.52;;
48911;SDS011;34722;52.108;5.044;2023-09-30T00:43:30;25.15;;;12.20;;
48911;SDS011;34722;52.108;5.044;2023-09-30T00:46:14;27.67;;;13.07;;
48911;SDS011;34722;52.108;5.044;2023-09-30T00:48:43;23.30;;;12.88;;
48911;SDS011;34722;52.108;5.044;2023-09-30T00:51:09;29.13;;;11.65;;
48911;SDS011;34722;52.108;5.044;2023-09-30T00:53:35;21.88;;;11.98;;
48911;SDS011;34722;52.108;5.044;2023-09-30T00:56:01;29.20;;;12.85;;
48911;SDS011;34722;52.108;5.044;2023-09-30T00:58:27;26.88;;;12.15;;
48911;SDS011;34722;52.108;5.044;2023-09-30T01:00:55;25.23;;;12.35;;
48911;SDS011;34722;52.108;5.044;2023-09-30T01:03:23;29.05;;;11.30;;
48911;SDS011;34722;52.108;5.044;2023-09-30T01:05:49;25.65;;;12.68;;
48911;SDS011;34722;52.108;5.044;2023-09-30T01:08:15;20.55;;;11.93;;
48911;SDS011;34722;52.108;5.044;2023-09-30T01:10:42;19.80;;;11.73;;
48911;SDS011;34722;52.108;5.044;2023-09-30T01:13:08;29.95;;;12.45;;
48911;SDS011;34722;52.108;5.044;2023-09-30T01:15:34;32.72;;;13.23;;
48911;SDS011;34722;52.108;5.044;2023-09-30T01:18:01;25.58;;;12.90;;
48911;SDS011;34722;52.108;5.044;2023-09-30T01:20:28;30.08;;;14.57;;
48911;SDS011;34722;52.108;5.044;2023-09-30T01:22:54;30.48;;;14.02;;
48911;SDS011;34722;52.108;5.044;2023-09-30T01:25:21;29.80;;;14.60;;
48911;SDS011;34722;52.108;5.044;2023-09-30T01:27:47;30.08;;;13.32;;
48911;SDS011;34722;52.108;5.044;2023-09-30T01:30:13;31.95;;;14.82;;
48911;SDS011;34722;52.108;5.044;2023-09-30T01:32:39;34.08;;;15.52;;
48911;SDS011;34722;52.108;5.044;2023-09-30T01:35:05;49.10;;;16.15;;
48911;SDS011;34722;52.108;5.044;2023-09-30T01:37:31;23.80;;;13.57;;
48911;SDS011;34722;52.108;5.044;2023-09-30T01:39:57;36.60;;;15.98;;
48911;SDS011;34722;52.108;5.044;2023-09-30T01:42:22;31.80;;;15.95;;
48911;SDS011;34722;52.108;5.044;2023-09-30T01:44:48;27.60;;;15.70;;
48911;SDS011;34722;52.108;5.044;2023-09-30T01:47:14;37.60;;;15.35;;
48911;SDS011;34722;52.108;5.044;2023-09-30T01:49:39;32.15;;;17.38;;
48911;SDS011;34722;52.108;5.044;2023-09-30T01:52:05;35.25;;;17.52;;
48911;SDS011;34722;52.108;5.044;2023-09-30T01:54:30;37.42;;;18.40;;
48911;SDS011;34722;52.108;5.044;2023-09-30T01:56:56;40.88;;;20.08;;
48911;SDS011;34722;52.108;5.044;2023-09-30T01:59:24;38.10;;;19.00;;
48911;SDS011;34722;52.108;5.044;2023-09-30T02:01:49;42.50;;;18.08;;
48911;SDS011;34722;52.108;5.044;2023-09-30T02:04:15;39.25;;;19.40;;
48911;SDS011;34722;52.108;5.044;2023-09-30T02:06:42;34.92;;;16.42;;
48911;SDS011;34722;52.108;5.044;2023-09-30T02:09:08;39.60;;;18.98;;
48911;SDS011;34722;52.108;5.044;2023-09-30T02:11:34;36.22;;;17.77;;
48911;SDS011;34722;52.108;5.044;2023-09-30T02:14:02;34.50;;;18.42;;
48911;SDS011;34722;52.108;5.044;2023-09-30T02:16:27;36.28;;;19.38;;
48911;SDS011;34722;52.108;5.044;2023-09-30T02:18:53;32.50;;;18.70;;
48911;SDS011;34722;52.108;5.044;2023-09-30T02:21:19;44.30;;;19.95;;
48911;SDS011;34722;52.108;5.044;2023-09-30T02:23:48;38.08;;;20.55;;
48911;SDS011;34722;52.108;5.044;2023-09-30T02:26:14;32.58;;;19.42;;
48911;SDS011;34722;52.108;5.044;2023-09-30T02:28:40;41.78;;;20.00;;
48911;SDS011;34722;52.108;5.044;2023-09-30T02:31:05;38.65;;;18.83;;
48911;SDS011;34722;52.108;5.044;2023-09-30T02:33:32;39.88;;;19.65;;
48911;SDS011;34722;52.108;5.044;2023-09-30T02:36:00;36.85;;;19.45;;
48911;SDS011;34722;52.108;5.044;2023-09-30T02:38:26;42.97;;;20.17;;
48911;SDS011;34722;52.108;5.044;2023-09-30T02:40:53;38.28;;;19.25;;
48911;SDS011;34722;52.108;5.044;2023-09-30T02:43:19;34.50;;;19.05;;
48911;SDS011;34722;52.108;5.044;2023-09-30T02:45:46;43.20;;;20.30;;
48911;SDS011;34722;52.108;5.044;2023-09-30T02:48:12;35.58;;;19.80;;
48911;SDS011;34722;52.108;5.044;2023-09-30T02:50:38;43.80;;;20.98;;
48911;SDS011;34722;52.108;5.044;2023-09-30T02:53:09;40.65;;;20.05;;
48911;SDS011;34722;52.108;5.044;2023-09-30T02:55:36;46.85;;;21.63;;
48911;SDS011;34722;52.108;5.044;2023-09-30T02:58:03;45.63;;;21.52;;
48911;SDS011;34722;52.108;5.044;2023-09-30T03:00:28;49.03;;;20.67;;
48911;SDS011;34722;52.108;5.044;2023-09-30T03:02:58;36.72;;;21.15;;
48911;SDS011;34722;52.108;5.044;2023-09-30T03:05:25;38.15;;;19.92;;
48911;SDS011;34722;52.108;5.044;2023-09-30T03:07:52;47.17;;;21.77;;
48911;SDS011;34722;52.108;5.044;2023-09-30T03:10:19;44.38;;;21.77;;
48911;SDS011;34722;52.108;5.044;2023-09-30T03:12:46;40.75;;;21.88;;
48911;SDS011;34722;52.108;5.044;2023-09-30T03:15:15;42.97;;;22.95;;
48911;SDS011;34722;52.108;5.044;2023-09-30T03:17:41;34.35;;;19.63;;
48911;SDS011;34722;52.108;5.044;2023-09-30T03:20:08;35.97;;;20.77;;
48911;SDS011;34722;52.108;5.044;2023-09-30T03:22:44;43.20;;;21.80;;
48911;SDS011;34722;52.108;5.044;2023-09-30T03:25:14;40.47;;;20.35;;
48911;SDS011;34722;52.108;5.044;2023-09-30T03:27:42;33.97;;;19.20;;
48911;SDS011;34722;52.108;5.044;2023-09-30T03:30:12;47.92;;;20.67;;
48911;SDS011;34722;52.108;5.044;2023-09-30T03:32:39;42.05;;;21.75;;
48911;SDS011;34722;52.108;5.044;2023-09-30T03:35:05;37.70;;;20.38;;
48911;SDS011;34722;52.108;5.044;2023-09-30T03:37:32;37.95;;;21.15;;
48911;SDS011;34722;52.108;5.044;2023-09-30T03:39:58;44.20;;;22.27;;
48911;SDS011;34722;52.108;5.044;2023-09-30T03:42:23;46.25;;;23.45;;
48911;SDS011;34722;52.108;5.044;2023-09-30T03:44:49;42.47;;;20.83;;
48911;SDS011;34722;52.108;5.044;2023-09-30T03:47:15;48.97;;;22.98;;
48911;SDS011;34722;52.108;5.044;2023-09-30T03:49:42;46.85;;;23.25;;
48911;SDS011;34722;52.108;5.044;2023-09-30T03:52:08;46.72;;;23.08;;
48911;SDS011;34722;52.108;5.044;2023-09-30T03:54:34;42.83;;;22.17;;
48911;SDS011;34722;52.108;5.044;2023-09-30T03:57:00;47.35;;;22.92;;
48911;SDS011;34722;52.108;5.044;2023-09-30T03:59:26;46.20;;;23.63;;
48911;SDS011;34722;52.108;5.044;2023-09-30T04:01:52;51.47;;;25.58;;
48911;SDS011;34722;52.108;5.044;2023-09-30T04:04:21;45.35;;;23.30;;
48911;SDS011;34722;52.108;5.044;2023-09-30T04:06:47;49.17;;;23.20;;
48911;SDS011;34722;52.108;5.044;2023-09-30T04:09:13;46.35;;;23.67;;
48911;SDS011;34722;52.108;5.044;2023-09-30T04:11:39;51.95;;;25.35;;
48911;SDS011;34722;52.108;5.044;2023-09-30T04:14:05;48.88;;;23.30;;
48911;SDS011;34722;52.108;5.044;2023-09-30T04:16:32;50.17;;;24.05;;
48911;SDS011;34722;52.108;5.044;2023-09-30T04:18:58;47.08;;;25.55;;
48911;SDS011;34722;52.108;5.044;2023-09-30T04:21:24;46.17;;;23.45;;
48911;SDS011;34722;52.108;5.044;2023-09-30T04:23:51;45.72;;;25.55;;
48911;SDS011;34722;52.108;5.044;2023-09-30T04:26:18;49.13;;;23.88;;
48911;SDS011;34722;52.108;5.044;2023-09-30T04:28:43;54.70;;;26.88;;
48911;SDS011;34722;52.108;5.044;2023-09-30T04:31:09;47.25;;;23.33;;
48911;SDS011;34722;52.108;5.044;2023-09-30T04:33:35;46.78;;;25.13;;
48911;SDS011;34722;52.108;5.044;2023-09-30T04:36:01;51.15;;;24.60;;
48911;SDS011;34722;52.108;5.044;2023-09-30T04:38:27;45.13;;;23.42;;
48911;SDS011;34722;52.108;5.044;2023-09-30T04:40:53;45.83;;;22.92;;
48911;SDS011;34722;52.108;5.044;2023-09-30T04:43:19;40.05;;;23.33;;
48911;SDS011;34722;52.108;5.044;2023-09-30T04:45:49;43.17;;;21.50;;
48911;SDS011;34722;52.108;5.044;2023-09-30T04:48:17;41.03;;;21.92;;
48911;SDS011;34722;52.108;5.044;2023-09-30T04:50:43;42.22;;;22.52;;
48911;SDS011;34722;52.108;5.044;2023-09-30T04:53:09;48.25;;;23.92;;
48911;SDS011;34722;52.108;5.044;2023-09-30T04:55:34;40.15;;;21.42;;
48911;SDS011;34722;52.108;5.044;2023-09-30T04:58:02;45.83;;;22.45;;
48911;SDS011;34722;52.108;5.044;2023-09-30T05:00:29;42.00;;;21.35;;
48911;SDS011;34722;52.108;5.044;2023-09-30T05:02:55;44.40;;;23.35;;
48911;SDS011;34722;52.108;5.044;2023-09-30T05:05:21;41.45;;;21.70;;
48911;SDS011;34722;52.108;5.044;2023-09-30T05:07:47;46.08;;;23.88;;
48911;SDS011;34722;52.108;5.044;2023-09-30T05:10:13;49.45;;;23.80;;
48911;SDS011;34722;52.108;5.044;2023-09-30T05:12:41;54.35;;;23.75;;
48911;SDS011;34722;52.108;5.044;2023-09-30T05:15:10;53.38;;;24.85;;
48911;SDS011;34722;52.108;5.044;2023-09-30T05:17:37;53.85;;;25.30;;
48911;SDS011;34722;52.108;5.044;2023-09-30T05:20:03;56.90;;;26.60;;
48911;SDS011;34722;52.108;5.044;2023-09-30T05:22:32;59.35;;;27.02;;
48911;SDS011;34722;52.108;5.044;2023-09-30T05:24:59;53.17;;;28.00;;
48911;SDS011;34722;52.108;5.044;2023-09-30T05:27:27;48.05;;;25.50;;
48911;SDS011;34722;52.108;5.044;2023-09-30T05:29:55;53.25;;;26.65;;
48911;SDS011;34722;52.108;5.044;2023-09-30T05:32:21;58.95;;;27.20;;
48911;SDS011;34722;52.108;5.044;2023-09-30T05:34:47;49.25;;;26.55;;
48911;SDS011;34722;52.108;5.044;2023-09-30T05:37:13;59.05;;;28.60;;
48911;SDS011;34722;52.108;5.044;2023-09-30T05:39:39;70.57;;;29.05;;
48911;SDS011;34722;52.108;5.044;2023-09-30T05:42:05;66.38;;;30.67;;
48911;SDS011;34722;52.108;5.044;2023-09-30T05:44:31;58.88;;;28.98;;
48911;SDS011;34722;52.108;5.044;2023-09-30T05:46:57;67.07;;;30.20;;
48911;SDS011;34722;52.108;5.044;2023-09-30T05:49:25;64.00;;;28.83;;
48911;SDS011;34722;52.108;5.044;2023-09-30T05:51:50;77.13;;;31.67;;
48911;SDS011;34722;52.108;5.044;2023-09-30T05:54:16;63.60;;;28.75;;
48911;SDS011;34722;52.108;5.044;2023-09-30T05:56:44;68.05;;;31.58;;
48911;SDS011;34722;52.108;5.044;2023-09-30T05:59:10;67.70;;;30.83;;
48911;SDS011;34722;52.108;5.044;2023-09-30T06:01:36;65.53;;;31.98;;
48911;SDS011;34722;52.108;5.044;2023-09-30T06:04:03;62.05;;;31.02;;
48911;SDS011;34722;52.108;5.044;2023-09-30T06:06:30;68.35;;;31.08;;
48911;SDS011;34722;52.108;5.044;2023-09-30T06:08:56;70.10;;;30.70;;
48911;SDS011;34722;52.108;5.044;2023-09-30T06:11:25;67.85;;;31.88;;
48911;SDS011;34722;52.108;5.044;2023-09-30T06:13:57;69.35;;;31.67;;
48911;SDS011;34722;52.108;5.044;2023-09-30T06:16:24;66.97;;;31.55;;
48911;SDS011;34722;52.108;5.044;2023-09-30T06:18:51;63.53;;;30.48;;
48911;SDS011;34722;52.108;5.044;2023-09-30T06:21:17;64.40;;;29.88;;
48911;SDS011;34722;52.108;5.044;2023-09-30T06:23:45;60.30;;;30.15;;
48911;SDS011;34722;52.108;5.044;2023-09-30T06:26:16;62.67;;;29.88;;
48911;SDS011;34722;52.108;5.044;2023-09-30T06:28:43;55.20;;;28.17;;
48911;SDS011;34722;52.108;5.044;2023-09-30T06:31:10;59.85;;;28.77;;
48911;SDS011;34722;52.108;5.044;2023-09-30T06:33:36;54.25;;;29.27;;
48911;SDS011;34722;52.108;5.044;2023-09-30T06:36:10;58.55;;;28.83;;
48911;SDS011;34722;52.108;5.044;2023-09-30T06:38:36;47.08;;;26.20;;
48911;SDS011;34722;52.108;5.044;2023-09-30T06:41:09;57.78;;;29.38;;
48911;SDS011;34722;52.108;5.044;2023-09-30T06:43:43;49.50;;;28.38;;
48911;SDS011;34722;52.108;5.044;2023-09-30T06:46:09;49.08;;;27.02;;
48911;SDS011;34722;52.108;5.044;2023-09-30T06:48:35;50.28;;;28.27;;
48911;SDS011;34722;52.108;5.044;2023-09-30T06:51:02;56.92;;;26.65;;
48911;SDS011;34722;52.108;5.044;2023-09-30T06:53:27;49.60;;;26.90;;
48911;SDS011;34722;52.108;5.044;2023-09-30T06:55:53;46.38;;;26.05;;
48911;SDS011;34722;52.108;5.044;2023-09-30T06:58:22;42.15;;;23.77;;
48911;SDS011;34722;52.108;5.044;2023-09-30T07:00:49;38.25;;;23.35;;
48911;SDS011;34722;52.108;5.044;2023-09-30T07:03:16;36.05;;;22.27;;
48911;SDS011;34722;52.108;5.044;2023-09-30T07:05:42;32.25;;;18.75;;
48911;SDS011;34722;52.108;5.044;2023-09-30T07:08:09;30.13;;;17.25;;
48911;SDS011;34722;52.108;5.044;2023-09-30T07:10:35;24.20;;;15.13;;
48911;SDS011;34722;52.108;5.044;2023-09-30T07:13:04;24.25;;;15.77;;
48911;SDS011;34722;52.108;5.044;2023-09-30T07:15:31;20.73;;;14.32;;
48911;SDS011;34722;52.108;5.044;2023-09-30T07:17:58;20.42;;;13.45;;
48911;SDS011;34722;52.108;5.044;2023-09-30T07:20:24;20.75;;;13.13;;
48911;SDS011;34722;52.108;5.044;2023-09-30T07:22:50;20.10;;;13.68;;
48911;SDS011;34722;52.108;5.044;2023-09-30T07:25:16;20.13;;;12.75;;
48911;SDS011;34722;52.108;5.044;2023-09-30T07:27:45;16.67;;;12.95;;
48911;SDS011;34722;52.108;5.044;2023-09-30T07:30:12;16.63;;;12.00;;
48911;SDS011;34722;52.108;5.044;2023-09-30T07:32:43;20.45;;;13.50;;
48911;SDS011;34722;52.108;5.044;2023-09-30T07:35:12;17.10;;;13.75;;
48911;SDS011;34722;52.108;5.044;2023-09-30T07:37:41;17.85;;;12.80;;
48911;SDS011;34722;52.108;5.044;2023-09-30T07:40:07;15.45;;;12.30;;
48911;SDS011;34722;52.108;5.044;2023-09-30T07:42:34;22.00;;;13.52;;
48911;SDS011;34722;52.108;5.044;2023-09-30T07:45:00;23.38;;;14.13;;
48911;SDS011;34722;52.108;5.044;2023-09-30T07:47:26;18.83;;;12.77;;
48911;SDS011;34722;52.108;5.044;2023-09-30T07:49:51;19.20;;;12.95;;
48911;SDS011;34722;52.108;5.044;2023-09-30T07:52:17;17.20;;;11.73;;
48911;SDS011;34722;52.108;5.044;2023-09-30T07:54:43;16.80;;;12.02;;
48911;SDS011;34722;52.108;5.044;2023-09-30T07:57:09;15.00;;;12.25;;
48911;SDS011;34722;52.108;5.044;2023-09-30T07:59:34;21.88;;;13.50;;
48911;SDS011;34722;52.108;5.044;2023-09-30T08:02:01;18.83;;;12.80;;
48911;SDS011;34722;52.108;5.044;2023-09-30T08:04:29;18.20;;;13.05;;
48911;SDS011;34722;52.108;5.044;2023-09-30T08:06:58;20.17;;;14.05;;
48911;SDS011;34722;52.108;5.044;2023-09-30T08:09:24;19.10;;;13.68;;
48911;SDS011;34722;52.108;5.044;2023-09-30T08:11:50;20.88;;;12.68;;
48911;SDS011;34722;52.108;5.044;2023-09-30T08:14:18;19.25;;;12.98;;
48911;SDS011;34722;52.108;5.044;2023-09-30T08:16:44;22.40;;;13.07;;
48911;SDS011;34722;52.108;5.044;2023-09-30T08:19:10;21.35;;;12.25;;
48911;SDS011;34722;52.108;5.044;2023-09-30T08:21:35;17.23;;;12.07;;
48911;SDS011;34722;52.108;5.044;2023-09-30T08:24:01;17.33;;;11.60;;
48911;SDS011;34722;52.108;5.044;2023-09-30T08:26:27;16.52;;;12.27;;
48911;SDS011;34722;52.108;5.044;2023-09-30T08:28:53;15.68;;;11.57;;
48911;SDS011;34722;52.108;5.044;2023-09-30T08:31:19;16.83;;;11.82;;
48911;SDS011;34722;52.108;5.044;2023-09-30T08:33:46;16.75;;;11.02;;
48911;SDS011;34722;52.108;5.044;2023-09-30T08:36:12;18.95;;;12.15;;
48911;SDS011;34722;52.108;5.044;2023-09-30T08:38:39;15.40;;;10.90;;
48911;SDS011;34722;52.108;5.044;2023-09-30T08:41:05;19.77;;;11.48;;
48911;SDS011;34722;52.108;5.044;2023-09-30T08:43:39;15.32;;;10.95;;
48911;SDS011;34722;52.108;5.044;2023-09-30T08:46:05;20.42;;;10.68;;
48911;SDS011;34722;52.108;5.044;2023-09-30T08:48:32;15.35;;;11.10;;
48911;SDS011;34722;52.108;5.044;2023-09-30T08:50:58;13.88;;;10.55;;
48911;SDS011;34722;52.108;5.044;2023-09-30T08:53:25;20.52;;;11.57;;
48911;SDS011;34722;52.108;5.044;2023-09-30T08:55:55;15.13;;;9.93;;
48911;SDS011;34722;52.108;5.044;2023-09-30T08:58:37;14.98;;;9.88;;
48911;SDS011;34722;52.108;5.044;2023-09-30T09:01:06;15.25;;;10.35;;
48911;SDS011;34722;52.108;5.044;2023-09-30T09:03:34;14.48;;;10.20;;
48911;SDS011;34722;52.108;5.044;2023-09-30T09:06:01;12.60;;;9.55;;
48911;SDS011;34722;52.108;5.044;2023-09-30T09:08:27;12.20;;;9.57;;
48911;SDS011;34722;52.108;5.044;2023-09-30T09:10:54;14.70;;;10.13;;
48911;SDS011;34722;52.108;5.044;2023-09-30T09:13:24;12.35;;;8.90;;
48911;SDS011;34722;52.108;5.044;2023-09-30T09:16:04;14.95;;;9.27;;
48911;SDS011;34722;52.108;5.044;2023-09-30T09:18:32;12.65;;;9.70;;
48911;SDS011;34722;52.108;5.044;2023-09-30T09:21:11;14.88;;;9.25;;
48911;SDS011;34722;52.108;5.044;2023-09-30T09:23:49;16.50;;;10.30;;
48911;SDS011;34722;52.108;5.044;2023-09-30T09:26:26;11.45;;;9.40;;
48911;SDS011;34722;52.108;5.044;2023-09-30T09:29:00;16.60;;;9.40;;
48911;SDS011;34722;52.108;5.044;2023-09-30T09:31:29;15.90;;;9.45;;
48911;SDS011;34722;52.108;5.044;2023-09-30T09:33:56;11.43;;;8.50;;
48911;SDS011;34722;52.108;5.044;2023-09-30T09:36:37;14.05;;;8.50;;
48911;SDS011;34722;52.108;5.044;2023-09-30T09:39:07;13.38;;;9.40;;
48911;SDS011;34722;52.108;5.044;2023-09-30T09:41:50;13.13;;;8.80;;
48911;SDS011;34722;52.108;5.044;2023-09-30T09:44:17;14.52;;;9.85;;
48911;SDS011;34722;52.108;5.044;2023-09-30T09:46:45;14.90;;;9.30;;
48911;SDS011;34722;52.108;5.044;2023-09-30T09:49:14;13.82;;;9.85;;
48911;SDS011;34722;52.108;5.044;2023-09-30T09:51:42;17.63;;;10.43;;
48911;SDS011;34722;52.108;5.044;2023-09-30T09:54:11;15.70;;;9.35;;
48911;SDS011;34722;52.108;5.044;2023-09-30T09:56:38;13.45;;;9.50;;
48911;SDS011;34722;52.108;5.044;2023-09-30T09:59:04;14.25;;;8.73;;
48911;SDS011;34722;52.108;5.044;2023-09-30T10:01:32;17.13;;;8.85;;
48911;SDS011;34722;52.108;5.044;2023-09-30T10:04:00;14.73;;;9.88;;
48911;SDS011;34722;52.108;5.044;2023-09-30T10:06:26;9.82;;;8.38;;
48911;SDS011;34722;52.108;5.044;2023-09-30T10:08:53;16.00;;;9.32;;
48911;SDS011;34722;52.108;5.044;2023-09-30T10:11:22;15.90;;;8.30;;
48911;SDS011;34722;52.108;5.044;2023-09-30T10:13:56;15.75;;;8.65;;
48911;SDS011;34722;52.108;5.044;2023-09-30T10:19:21;17.08;;;9.90;;
48911;SDS011;34722;52.108;5.044;2023-09-30T10:24:45;15.93;;;8.35;;
48911;SDS011;34722;52.108;5.044;2023-09-30T10:27:27;13.13;;;8.80;;
48911;SDS011;34722;52.108;5.044;2023-09-30T10:40:51;10.88;;;6.60;;
48911;SDS011;34722;52.108;5.044;2023-09-30T10:43:30;13.13;;;8.15;;
48911;SDS011;34722;52.108;5.044;2023-09-30T10:46:00;15.18;;;7.97;;
48911;SDS011;34722;52.108;5.044;2023-09-30T10:51:15;16.73;;;6.55;;
48911;SDS011;34722;52.108;5.044;2023-09-30T10:53:54;11.55;;;5.05;;
48911;SDS011;34722;52.108;5.044;2023-09-30T10:56:22;12.38;;;4.20;;
48911;SDS011;34722;52.108;5.044;2023-09-30T10:58:52;10.50;;;4.82;;
48911;SDS011;34722;52.108;5.044;2023-09-30T11:01:20;8.57;;;4.20;;
48911;SDS011;34722;52.108;5.044;2023-09-30T11:03:46;11.15;;;3.72;;
48911;SDS011;34722;52.108;5.044;2023-09-30T11:06:16;13.77;;;5.50;;
48911;SDS011;34722;52.108;5.044;2023-09-30T11:08:45;6.80;;;3.65;;
48911;SDS011;34722;52.108;5.044;2023-09-30T11:14:30;9.05;;;3.13;;
48911;SDS011;34722;52.108;5.044;2023-09-30T11:16:57;8.50;;;3.80;;
48911;SDS011;34722;52.108;5.044;2023-09-30T11:19:35;15.35;;;5.15;;
48911;SDS011;34722;52.108;5.044;2023-09-30T11:22:02;13.82;;;4.78;;
48911;SDS011;34722;52.108;5.044;2023-09-30T11:24:28;10.80;;;3.60;;
48911;SDS011;34722;52.108;5.044;2023-09-30T11:26:54;11.15;;;3.83;;
48911;SDS011;34722;52.108;5.044;2023-09-30T11:29:21;8.32;;;3.78;;
48911;SDS011;34722;52.108;5.044;2023-09-30T11:31:47;6.57;;;3.45;;
48911;SDS011;34722;52.108;5.044;2023-09-30T11:34:16;8.57;;;3.60;;
48911;SDS011;34722;52.108;5.044;2023-09-30T11:36:51;9.02;;;3.03;;
48911;SDS011;34722;52.108;5.044;2023-09-30T11:39:35;6.97;;;3.20;;
48911;SDS011;34722;52.108;5.044;2023-09-30T11:42:01;9.25;;;3.20;;
48911;SDS011;34722;52.108;5.044;2023-09-30T11:44:44;6.75;;;2.90;;
48911;SDS011;34722;52.108;5.044;2023-09-30T11:47:11;7.40;;;3.28;;
48911;SDS011;34722;52.108;5.044;2023-09-30T11:49:38;11.95;;;4.97;;
48911;SDS011;34722;52.108;5.044;2023-09-30T11:52:10;8.68;;;3.55;;
48911;SDS011;34722;52.108;5.044;2023-09-30T11:54:38;11.02;;;3.40;;
48911;SDS011;34722;52.108;5.044;2023-09-30T11:57:11;8.90;;;2.85;;
48911;SDS011;34722;52.108;5.044;2023-09-30T11:59:42;10.77;;;3.10;;
48911;SDS011;34722;52.108;5.044;2023-09-30T12:02:09;9.43;;;3.33;;
48911;SDS011;34722;52.108;5.044;2023-09-30T12:04:35;10.32;;;3.17;;
48911;SDS011;34722;52.108;5.044;2023-09-30T12:07:02;10.25;;;3.35;;
48911;SDS011;34722;52.108;5.044;2023-09-30T12:09:27;11.50;;;3.53;;
48911;SDS011;34722;52.108;5.044;2023-09-30T12:11:55;9.68;;;4.20;;
48911;SDS011;34722;52.108;5.044;2023-09-30T12:14:22;9.15;;;3.63;;
48911;SDS011;34722;52.108;5.044;2023-09-30T12:16:54;8.88;;;3.53;;
48911;SDS011;34722;52.108;5.044;2023-09-30T12:19:20;9.98;;;3.83;;
48911;SDS011;34722;52.108;5.044;2023-09-30T12:21:47;6.13;;;3.22;;
48911;SDS011;34722;52.108;5.044;2023-09-30T12:24:16;10.82;;;3.33;;
48911;SDS011;34722;52.108;5.044;2023-09-30T12:26:48;10.32;;;3.50;;
48911;SDS011;34722;52.108;5.044;2023-09-30T12:29:18;7.20;;;3.40;;
48911;SDS011;34722;52.108;5.044;2023-09-30T12:31:48;12.57;;;4.18;;
48911;SDS011;34722;52.108;5.044;2023-09-30T12:34:15;14.38;;;3.92;;
48911;SDS011;34722;52.108;5.044;2023-09-30T12:36:41;10.95;;;4.13;;
48911;SDS011;34722;52.108;5.044;2023-09-30T12:39:07;14.70;;;5.50;;
48911;SDS011;34722;52.108;5.044;2023-09-30T12:41:40;11.23;;;4.40;;
48911;SDS011;34722;52.108;5.044;2023-09-30T12:44:07;12.35;;;3.95;;
48911;SDS011;34722;52.108;5.044;2023-09-30T12:46:34;8.27;;;3.80;;
48911;SDS011;34722;52.108;5.044;2023-09-30T12:49:01;12.52;;;4.72;;
48911;SDS011;34722;52.108;5.044;2023-09-30T12:51:28;12.48;;;4.65;;
48911;SDS011;34722;52.108;5.044;2023-09-30T12:53:54;10.70;;;4.18;;
48911;SDS011;34722;52.108;5.044;2023-09-30T12:56:19;13.05;;;4.30;;
48911;SDS011;34722;52.108;5.044;2023-09-30T12:58:45;12.73;;;3.67;;
48911;SDS011;34722;52.108;5.044;2023-09-30T13:01:12;12.90;;;4.85;;
48911;SDS011;34722;52.108;5.044;2023-09-30T13:03:37;10.57;;;3.80;;
48911;SDS011;34722;52.108;5.044;2023-09-30T13:06:03;11.80;;;3.75;;
48911;SDS011;34722;52.108;5.044;2023-09-30T13:08:37;14.10;;;4.00;;
48911;SDS011;34722;52.108;5.044;2023-09-30T13:17:56;10.68;;;3.70;;
48911;SDS011;34722;52.108;5.044;2023-09-30T13:20:54;14.55;;;4.25;;
48911;SDS011;34722;52.108;5.044;2023-09-30T13:29:46;12.45;;;3.78;;
48911;SDS011;34722;52.108;5.044;2023-09-30T13:32:12;15.90;;;5.15;;
48911;SDS011;34722;52.108;5.044;2023-09-30T13:34:39;11.48;;;4.20;;
48911;SDS011;34722;52.108;5.044;2023-09-30T13:37:04;8.18;;;4.20;;
48911;SDS011;34722;52.108;5.044;2023-09-30T13:39:30;10.00;;;3.70;;
48911;SDS011;34722;52.108;5.044;2023-09-30T13:41:56;14.10;;;3.97;;
48911;SDS011;34722;52.108;5.044;2023-09-30T13:44:22;9.93;;;3.83;;
48911;SDS011;34722;52.108;5.044;2023-09-30T13:46:48;6.32;;;4.13;;
48911;SDS011;34722;52.108;5.044;2023-09-30T13:49:13;10.45;;;4.35;;
48911;SDS011;34722;52.108;5.044;2023-09-30T13:51:39;13.95;;;4.78;;
48911;SDS011;34722;52.108;5.044;2023-09-30T13:54:05;8.95;;;3.83;;
48911;SDS011;34722;52.108;5.044;2023-09-30T13:56:34;10.18;;;5.53;;
48911;SDS011;34722;52.108;5.044;2023-09-30T13:58:59;11.68;;;4.95;;
48911;SDS011;34722;52.108;5.044;2023-09-30T14:01:25;14.60;;;4.57;;
48911;SDS011;34722;52.108;5.044;2023-09-30T14:03:52;12.68;;;5.03;;
48911;SDS011;34722;52.108;5.044;2023-09-30T14:08:58;9.57;;;4.35;;
48911;SDS011;34722;52.108;5.044;2023-09-30T14:11:24;10.35;;;5.18;;
48911;SDS011;34722;52.108;5.044;2023-09-30T14:13:50;11.75;;;4.93;;
48911;SDS011;34722;52.108;5.044;2023-09-30T14:16:15;12.77;;;4.88;;
48911;SDS011;34722;52.108;5.044;2023-09-30T14:18:41;9.90;;;4.80;;
48911;SDS011;34722;52.108;5.044;2023-09-30T14:21:07;11.55;;;4.45;;
48911;SDS011;34722;52.108;5.044;2023-09-30T14:23:33;13.23;;;4.55;;
48911;SDS011;34722;52.108;5.044;2023-09-30T14:25:59;11.00;;;3.83;;
48911;SDS011;34722;52.108;5.044;2023-09-30T14:28:25;13.60;;;4.35;;
48911;SDS011;34722;52.108;5.044;2023-09-30T14:30:51;9.20;;;4.53;;
48911;SDS011;34722;52.108;5.044;2023-09-30T14:33:21;11.90;;;4.07;;
48911;SDS011;34722;52.108;5.044;2023-09-30T14:35:46;13.25;;;4.88;;
48911;SDS011;34722;52.108;5.044;2023-09-30T14:38:13;10.18;;;4.25;;
48911;SDS011;34722;52.108;5.044;2023-09-30T14:40:39;18.27;;;4.25;;
48911;SDS011;34722;52.108;5.044;2023-09-30T14:43:05;15.60;;;5.53;;
48911;SDS011;34722;52.108;5.044;2023-09-30T14:45:38;15.38;;;5.13;;
48911;SDS011;34722;52.108;5.044;2023-09-30T14:48:07;11.45;;;4.55;;
48911;SDS011;34722;52.108;5.044;2023-09-30T14:50:34;12.10;;;4.22;;
48911;SDS011;34722;52.108;5.044;2023-09-30T14:53:01;13.60;;;4.63;;
48911;SDS011;34722;52.108;5.044;2023-09-30T14:55:27;10.18;;;3.90;;
48911;SDS011;34722;52.108;5.044;2023-09-30T14:57:54;12.88;;;4.00;;
48911;SDS011;34722;52.108;5.044;2023-09-30T15:00:20;13.95;;;6.40;;
48911;SDS011;34722;52.108;5.044;2023-09-30T15:02:49;16.67;;;5.70;;
48911;SDS011;34722;52.108;5.044;2023-09-30T15:05:15;13.55;;;5.25;;
48911;SDS011;34722;52.108;5.044;2023-09-30T15:07:41;12.95;;;4.60;;
48911;SDS011;34722;52.108;5.044;2023-09-30T15:10:07;14.15;;;6.03;;